Main page
METAR-TAF:

METAR-TAF

Airports :

Fairbanks, Alaska, United States

Fairbanks International Airport

latitude: 64-48-14N, longitude: 147-52-34W, elevation: 132 m

Current weather observation

The report was made 39 minutes ago, at 16:53 UTC
Calm wind
Temperature 16°C
Humidity 55%
Pressure 1011 hPa
Visibility: 16.1 km
Broken clouds at a height of 7500 ft
Broken clouds at a height of 10000 ft
Broken clouds at a height of 20000 ft

METAR: PAFA 281653Z 00000KT 10SM BKN075 BKN100 BKN200 16/07 A2986 RMK AO2 SLP115 T01610067

Time: 09:32 (17:32 UTC)

Forecast

The report was made 5 hours and 33 minutes ago, at 11:59 UTC
Forecast valid from 28 at 12 UTC to 29 at 18 UTC
Wind 3 kt from variable directions
Visibility: 10 km
Broken clouds at a height of 8000 ft
showers in vicinity
From 28 at 2000 UTC
Wind 3 kt from variable directions
Visibility: 10 km
Scattered clouds at a height of 8000 ft
Broken clouds at a height of 20000 ft

TAF: PAFA 281159Z 2812/2918 VRB03KT P6SM VCSH BKN080 FM282000 VRB03KT P6SM SCT080 BKN200

Weather observations and forecasts of more than 4000 airports (METAR and TAF reports).

The available stations are represented by yellow and red dots on the map.

Hover mouse over dot to see the name of the station.

Then click to see weather observations and forecasts.

To change the map : click on the green buttons with a black cross to zoom in, on the green button with a dash to zoom out, or on the green arrows for adjacent maps.


METAR-TAF: